Time;durP1;ratioP1;P1;durP2;ratioP2;P2;SDS_P1;SDS_P2;PMS_P1;PMS_P2;Temp;Humidity;BMP_temperature;BMP_pressure;BME280_temperature;BME280_humidity;BME280_pressure;Samples;Min_cycle;Max_cycle;Signal;HPM_P1;HPM_P2
2022/04/11 00:00:43;;;;;;;14.57;7.05;;;;;;;2.33;100.00;100923.41;5053373;28;20102;-69
2022/04/11 00:03:28;;;;;;;16.88;8.23;;;;;;;2.30;100.00;100923.56;5053065;28;20134;-67
2022/04/11 00:06:12;;;;;;;24.08;9.60;;;;;;;2.26;100.00;100923.78;5052999;28;20052;-69
2022/04/11 00:08:56;;;;;;;17.45;8.23;;;;;;;2.21;100.00;100910.00;5053936;28;20060;-69
2022/04/11 00:11:40;;;;;;;17.20;7.78;;;;;;;2.14;100.00;100908.59;5053471;28;20503;-69
2022/04/11 00:14:24;;;;;;;11.25;6.30;;;;;;;2.11;100.00;100901.75;5052885;28;20044;-69
2022/04/11 00:17:09;;;;;;;9.50;5.28;;;;;;;2.09;100.00;100895.69;5053025;28;20099;-69
2022/04/11 00:19:53;;;;;;;7.60;5.22;;;;;;;2.04;100.00;100897.69;5053034;28;20052;-69
2022/04/11 00:22:37;;;;;;;9.00;5.18;;;;;;;1.98;100.00;100892.72;5054001;28;20087;-69
2022/04/11 00:25:21;;;;;;;6.95;5.15;;;;;;;1.97;100.00;100896.28;5052640;28;20074;-69
2022/04/11 00:28:05;;;;;;;9.30;5.93;;;;;;;1.92;100.00;100898.31;5052571;28;20079;-69
2022/04/11 00:30:48;;;;;;;9.45;6.53;;;;;;;1.94;100.00;100893.81;5052794;28;20530;-68
2022/04/11 00:33:32;;;;;;;6.68;5.28;;;;;;;1.95;100.00;100898.16;5052855;28;20051;-69
2022/04/11 00:36:16;;;;;;;8.30;6.00;;;;;;;1.88;100.00;100902.00;5052779;28;20087;-69
2022/04/11 00:39:00;;;;;;;10.00;6.75;;;;;;;1.86;100.00;100893.34;5052756;28;20056;-69
2022/04/11 00:41:44;;;;;;;11.77;7.65;;;;;;;1.81;100.00;100895.34;5053686;28;20045;-69
2022/04/11 00:44:28;;;;;;;12.82;7.95;;;;;;;1.78;100.00;100887.59;5052616;28;20095;-69
2022/04/11 00:47:11;;;;;;;11.80;7.40;;;;;;;1.80;100.00;100891.03;5053481;28;20095;-69
2022/04/11 00:49:59;;;;;;;15.02;8.10;;;;;;;1.78;100.00;100892.84;5052651;28;20103;-69
2022/04/11 00:52:49;;;;;;;14.55;8.10;;;;;;;1.81;100.00;100894.47;5052289;28;20052;-69
2022/04/11 00:55:34;;;;;;;12.73;7.60;;;;;;;1.82;100.00;100891.78;5052260;28;20076;-69
2022/04/11 00:58:18;;;;;;;11.07;7.63;;;;;;;1.80;100.00;100882.28;5052427;28;20044;-69
2022/04/11 01:01:04;;;;;;;12.65;8.85;;;;;;;1.79;100.00;100884.06;5052550;28;20048;-69
2022/04/11 01:03:48;;;;;;;11.30;8.27;;;;;;;1.75;100.00;100882.50;5052028;28;20103;-69
2022/04/11 01:06:32;;;;;;;13.23;8.65;;;;;;;1.74;100.00;100883.41;5052354;28;20051;-69
2022/04/11 01:09:16;;;;;;;13.20;9.45;;;;;;;1.75;100.00;100874.59;5052229;28;20124;-69
2022/04/11 01:12:01;;;;;;;13.68;9.20;;;;;;;1.73;100.00;100886.97;5052073;28;20133;-69
2022/04/11 01:14:45;;;;;;;15.73;8.10;;;;;;;1.82;100.00;100876.03;5052079;28;20515;-69
2022/04/11 01:17:37;;;;;;;15.48;9.15;;;;;;;1.91;100.00;100872.94;5053188;28;20578;-69
2022/04/11 01:20:21;;;;;;;13.30;9.23;;;;;;;1.91;100.00;100866.81;5051993;28;20417;-69
2022/04/11 01:23:05;;;;;;;10.70;8.18;;;;;;;1.91;100.00;100870.31;5052502;28;20557;-69
2022/04/11 01:25:50;;;;;;;;;;;;;;;1.94;100.00;100867.53;5053349;28;20040;-69
2022/04/11 01:28:36;;;;;;;15.65;9.48;;;;;;;1.96;100.00;100865.66;5051921;28;20330;-69
2022/04/11 01:31:20;;;;;;;16.98;9.93;;;;;;;1.98;100.00;100855.91;5052197;28;20545;-69
2022/04/11 01:34:04;;;;;;;12.75;9.10;;;;;;;2.00;100.00;100859.34;5053067;28;20404;-69
2022/04/11 01:36:48;;;;;;;13.07;9.30;;;;;;;2.02;100.00;100857.47;5053028;28;20128;-69
2022/04/11 01:39:32;;;;;;;18.20;9.77;;;;;;;2.11;100.00;100857.03;5052152;28;20091;-69
2022/04/11 01:42:16;;;;;;;18.23;9.82;;;;;;;2.20;100.00;100847.81;5051799;28;20052;-69
2022/04/11 01:45:00;;;;;;;17.35;8.90;;;;;;;2.20;100.00;100846.03;5037720;28;20044;-69
2022/04/11 01:47:46;;;;;;;18.33;10.05;;;;;;;2.23;100.00;100851.13;5051696;28;20055;-69
2022/04/11 01:50:30;;;;;;;14.18;9.77;;;;;;;2.26;100.00;100843.09;5052032;28;20475;-69
2022/04/11 01:53:16;;;;;;;15.13;9.70;;;;;;;2.27;100.00;100844.78;5052671;28;20091;-69
2022/04/11 01:56:00;;;;;;;15.45;9.63;;;;;;;2.29;100.00;100842.91;5051960;28;20079;-69
2022/04/11 01:58:44;;;;;;;;;;;;;;;2.29;100.00;100829.75;5052967;28;20051;-69
2022/04/11 02:01:28;;;;;;;12.75;8.98;;;;;;;2.29;100.00;100827.13;5051813;28;19919;-69
2022/04/11 02:04:12;;;;;;;12.45;9.23;;;;;;;2.29;100.00;100824.50;5052535;28;20052;-69
2022/04/11 02:06:56;;;;;;;11.88;9.25;;;;;;;2.33;100.00;100815.53;5052503;28;20056;-69
2022/04/11 02:09:40;;;;;;;12.15;9.18;;;;;;;2.31;100.00;100812.16;5051553;28;20196;-69
2022/04/11 02:12:24;;;;;;;14.00;8.52;;;;;;;2.28;100.00;100807.03;5040043;28;20470;-69
2022/04/11 02:15:12;;;;;;;12.88;9.25;;;;;;;2.32;100.00;100803.31;5056374;28;20401;-69
2022/04/11 02:17:55;;;;;;;16.38;8.77;;;;;;;2.38;100.00;100808.25;5055388;28;20051;-69
2022/04/11 02:20:39;;;;;;;16.95;9.65;;;;;;;2.43;100.00;100800.97;5056049;28;20052;-69
2022/04/11 02:23:23;;;;;;;;;;;;;;;2.47;100.00;100797.25;5055702;28;20469;-69
2022/04/11 02:26:08;;;;;;;16.60;10.60;;;;;;;2.47;100.00;100797.25;5055239;28;19919;-69
2022/04/11 02:28:52;;;;;;;14.00;9.50;;;;;;;2.53;100.00;100803.03;5055180;28;20048;-69
2022/04/11 02:31:36;;;;;;;12.73;8.40;;;;;;;2.58;100.00;100800.16;5055827;28;20076;-69
2022/04/11 02:34:20;;;;;;;13.25;8.93;;;;;;;2.59;100.00;100801.84;5056046;28;20079;-69
2022/04/11 02:37:04;;;;;;;11.95;9.35;;;;;;;2.62;100.00;100796.44;5054848;28;20416;-69
2022/04/11 02:39:48;;;;;;;12.43;8.80;;;;;;;2.67;100.00;100790.00;5055206;28;20059;-69
2022/04/11 02:42:32;;;;;;;13.48;9.23;;;;;;;2.65;100.00;100788.38;5055752;28;20047;-69
2022/04/11 02:45:16;;;;;;;12.77;9.32;;;;;;;2.61;100.00;100785.03;5054500;28;20047;-69
2022/04/11 02:48:00;;;;;;;11.93;8.20;;;;;;;2.58;100.00;100785.22;5054567;28;20180;-69
2022/04/11 02:50:44;;;;;;;13.75;8.05;;;;;;;2.62;100.00;100786.75;5040705;28;20052;-69
2022/04/11 02:53:28;;;;;;;13.60;8.65;;;;;;;2.68;100.00;100782.94;5054427;28;20204;-69
2022/04/11 02:56:12;;;;;;;12.40;8.98;;;;;;;2.67;100.00;100781.25;5055377;28;20551;-69
2022/04/11 02:58:55;;;;;;;12.50;8.90;;;;;;;2.61;100.00;100771.88;5054571;28;20047;-69
2022/04/11 03:01:39;;;;;;;;;;;;;;;2.59;100.00;100770.25;5054945;28;20115;-69
2022/04/11 03:04:24;;;;;;;13.65;8.85;;;;;;;2.55;100.00;100768.75;5054180;28;19935;-69
2022/04/11 03:07:07;;;;;;;11.00;9.07;;;;;;;2.63;100.00;100771.81;5054281;28;20098;-69
2022/04/11 03:09:51;;;;;;;12.80;9.35;;;;;;;2.68;100.00;100775.91;5054416;28;20055;-69
2022/04/11 03:12:35;;;;;;;;;;;;;;;2.73;100.00;100760.69;5054753;28;20098;-69
2022/04/11 03:15:19;;;;;;;14.07;9.13;;;;;;;2.70;100.00;100752.09;5054287;28;20016;-70
2022/04/11 03:18:03;;;;;;;13.82;8.50;;;;;;;2.76;100.00;100747.38;5054027;28;20094;-69
2022/04/11 03:20:47;;;;;;;11.75;8.60;;;;;;;2.77;100.00;100748.22;5055219;28;20056;-69
2022/04/11 03:23:31;;;;;;;;;;;;;;;2.82;100.00;100754.09;5054491;28;20511;-69
2022/04/11 03:26:15;;;;;;;16.53;9.40;;;;;;;2.76;100.00;100750.03;5054813;28;20062;-69
2022/04/11 03:28:59;;;;;;;14.60;10.10;;;;;;;2.75;100.00;100744.81;5054038;28;20350;-69
2022/04/11 03:31:43;;;;;;;18.08;10.50;;;;;;;2.74;100.00;100748.41;5054026;28;20051;-69
2022/04/11 03:34:27;;;;;;;15.23;10.90;;;;;;;2.69;100.00;100740.75;5053932;28;20515;-69
2022/04/11 03:37:12;;;;;;;15.02;11.02;;;;;;;2.62;100.00;100749.06;5054532;28;20519;-69
2022/04/11 03:39:55;;;;;;;18.10;10.95;;;;;;;2.65;100.00;100738.34;5053526;28;20550;-69
2022/04/11 03:42:39;;;;;;;17.42;11.25;;;;;;;2.62;100.00;100744.63;5053506;28;20531;-69
2022/04/11 03:45:23;;;;;;;17.20;11.45;;;;;;;2.67;100.00;100747.88;5053484;28;20079;-69
2022/04/11 03:48:07;;;;;;;17.80;12.15;;;;;;;2.68;100.00;100749.56;5053324;28;20052;-69
2022/04/11 03:50:51;;;;;;;18.00;12.68;;;;;;;2.66;100.00;100750.59;5053356;28;20095;-69
2022/04/11 03:53:35;;;;;;;17.73;12.20;;;;;;;2.65;100.00;100747.09;5053588;28;20515;-69
2022/04/11 03:56:19;;;;;;;;;;;;;;;2.62;100.00;100754.31;5055178;28;20183;-69
2022/04/11 03:59:02;;;;;;;19.70;13.57;;;;;;;2.54;100.00;100740.72;5053230;28;20027;-69
2022/04/11 04:01:46;;;;;;;21.23;13.90;;;;;;;2.47;100.00;100740.22;5054084;28;20285;-68
2022/04/11 04:04:30;;;;;;;19.38;12.85;;;;;;;2.44;100.00;100745.63;5053795;28;20067;-69
2022/04/11 04:07:14;;;;;;;19.67;13.05;;;;;;;2.35;100.00;100745.28;5053485;28;20139;-69
2022/04/11 04:09:58;;;;;;;20.48;13.57;;;;;;;2.29;100.00;100745.56;5053265;28;20124;-68
2022/04/11 04:12:42;;;;;;;21.88;13.43;;;;;;;2.28;100.00;100733.34;5054008;28;20102;-69
2022/04/11 04:15:26;;;;;;;20.30;13.18;;;;;;;2.30;100.00;100734.16;5053184;28;20044;-69
2022/04/11 04:18:12;;;;;;;18.58;13.65;;;;;;;2.31;100.00;100743.75;5054036;28;20175;-69
2022/04/11 04:20:56;;;;;;;20.35;14.15;;;;;;;2.29;100.00;100737.69;5053872;28;20103;-69
2022/04/11 04:23:40;;;;;;;;;;;;;;;2.27;100.00;100738.72;5054081;28;20196;-69
2022/04/11 04:26:24;;;;;;;19.80;14.32;;;;;;;2.27;100.00;100747.44;5052641;28;20298;-69
2022/04/11 04:29:07;;;;;;;24.95;14.32;;;;;;;2.28;100.00;100743.06;5053608;28;20106;-69
2022/04/11 04:31:51;;;;;;;20.92;14.60;;;;;;;2.28;100.00;100743.06;5053883;28;20459;-69
2022/04/11 04:34:36;;;;;;;21.83;13.82;;;;;;;2.29;100.00;100750.84;5053112;28;20404;-69
2022/04/11 04:37:20;;;;;;;19.75;14.23;;;;;;;2.20;100.00;100735.56;5038616;28;20102;-69
2022/04/11 04:40:05;;;;;;;18.33;14.02;;;;;;;2.04;100.00;100729.41;5052738;28;20409;-69
2022/04/11 04:42:48;;;;;;;24.42;15.30;;;;;;;1.95;100.00;100729.03;5052682;28;20051;-69
2022/04/11 04:45:32;;;;;;;20.05;13.65;;;;;;;1.87;100.00;100725.94;5053320;28;20044;-69
2022/04/11 04:48:16;;;;;;;24.98;14.88;;;;;;;1.81;100.00;100721.84;5052364;28;20091;-69
2022/04/11 04:51:01;;;;;;;;;;;;;;;1.80;100.00;100720.16;5052977;28;20047;-68
2022/04/11 04:53:45;;;;;;;23.85;14.48;;;;;;;1.77;100.00;100722.91;5052318;28;20013;-69
2022/04/11 04:56:29;;;;;;;;;;;;;;;1.80;100.00;100720.16;5053160;28;20047;-69
2022/04/11 04:59:12;;;;;;;24.80;13.83;;;;;;;1.70;100.00;100723.31;5052266;28;20371;-69
2022/04/11 05:01:56;;;;;;;21.10;14.38;;;;;;;1.69;100.00;100726.88;5052464;28;20269;-69
2022/04/11 05:04:40;;;;;;;21.52;15.07;;;;;;;1.72;100.00;100727.59;5053034;28;20515;-69
2022/04/11 05:07:24;;;;;;;32.30;15.75;;;;;;;1.84;100.00;100723.47;5052245;28;20060;-69
2022/04/11 05:10:08;;;;;;;23.13;15.30;;;;;;;1.89;100.00;100724.09;5053124;28;20047;-69
2022/04/11 05:12:53;;;;;;;25.27;14.30;;;;;;;1.92;100.00;100719.53;5053345;28;20040;-69
2022/04/11 05:15:36;;;;;;;23.05;14.30;;;;;;;1.98;100.00;100726.25;5053068;28;20047;-69
2022/04/11 05:18:20;;;;;;;;;;;;;;;2.05;100.00;100720.56;5053519;28;20048;-69
2022/04/11 05:21:04;;;;;;;22.07;14.03;;;;;;;2.08;100.00;100709.06;5038413;28;20437;-69
2022/04/11 05:23:48;;;;;;;24.58;13.45;;;;;;;2.11;100.00;100715.00;5052455;28;20772;-69
2022/04/11 05:26:32;;;;;;;;;;;;;;;2.05;100.00;100714.50;5052212;28;20052;-69
2022/04/11 05:29:16;;;;;;;18.77;14.13;;;;;;;1.98;100.00;100713.94;5052933;28;19966;-69
2022/04/11 05:32:00;;;;;;;20.98;14.63;;;;;;;1.96;100.00;100721.06;5053195;28;20447;-69
2022/04/11 05:34:44;;;;;;;;;;;;;;;2.06;100.00;100722.28;5052594;28;20048;-69
2022/04/11 05:37:28;;;;;;;17.43;13.27;;;;;;;2.07;100.00;100729.22;5051989;28;19962;-69
2022/04/11 05:40:12;;;;;;;27.25;15.13;;;;;;;2.06;100.00;100721.44;5051819;28;20697;-69
2022/04/11 05:42:56;;;;;;;21.60;14.23;;;;;;;2.11;100.00;100720.28;5051786;28;20095;-70
2022/04/11 05:45:41;;;;;;;22.63;14.95;;;;;;;2.23;100.00;100727.50;5037957;28;20044;-69
2022/04/11 05:48:26;;;;;;;21.92;14.93;;;;;;;2.34;100.00;100733.06;5055884;28;20095;-69
2022/04/11 05:51:10;;;;;;;22.05;14.95;;;;;;;2.43;100.00;100728.13;5056752;28;20110;-69
2022/04/11 05:53:54;;;;;;;20.98;14.23;;;;;;;2.48;100.00;100720.00;5055786;28;20056;-69
2022/04/11 05:56:38;;;;;;;20.25;14.20;;;;;;;2.58;100.00;100719.44;5055569;28;20136;-69
2022/04/11 05:59:22;;;;;;;20.90;14.00;;;;;;;2.67;100.00;100724.19;5055520;28;20508;-69
2022/04/11 06:02:09;;;;;;;21.15;14.68;;;;;;;2.82;100.00;100714.59;5055981;28;20130;-69
2022/04/11 06:04:53;;;;;;;20.08;13.98;;;;;;;2.84;100.00;100712.72;5056230;28;20124;-69
2022/04/11 06:07:37;;;;;;;;;;;;;;;2.93;100.00;100718.31;5055897;28;20051;-69
2022/04/11 06:10:21;;;;;;;23.30;14.07;;;;;;;3.02;100.00;100719.59;5055301;28;19963;-69
2022/04/11 06:13:05;;;;;;;38.97;26.50;;;;;;;3.10;100.00;100715.59;5056475;28;20083;-69
2022/04/11 06:15:48;;;;;;;37.25;24.85;;;;;;;3.21;100.00;100718.47;5041283;28;20091;-69
2022/04/11 06:18:32;;;;;;;23.17;13.75;;;;;;;3.45;100.00;100721.50;5055311;28;20052;-69
2022/04/11 06:21:16;;;;;;;18.50;14.35;;;;;;;3.51;100.00;100711.44;5056339;28;20495;-69
2022/04/11 06:24:00;;;;;;;17.38;11.05;;;;;;;3.66;100.00;100707.88;5055894;28;20520;-69
2022/04/11 06:26:44;;;;;;;25.92;17.98;;;;;;;3.88;100.00;100713.56;5055393;28;20079;-69
2022/04/11 06:29:29;;;;;;;21.33;11.77;;;;;;;3.94;100.00;100707.94;5056403;28;20102;-69
2022/04/11 06:32:14;;;;;;;30.02;18.23;;;;;;;4.04;100.00;100701.19;5041042;28;20051;-69
2022/04/11 06:34:58;;;;;;;27.60;13.95;;;;;;;4.24;100.00;100714.00;5055063;28;20175;-69
2022/04/11 06:37:42;;;;;;;23.25;12.40;;;;;;;4.43;100.00;100714.56;5054800;28;20508;-69
2022/04/11 06:40:26;;;;;;;21.00;12.60;;;;;;;4.49;100.00;100710.69;5055674;28;20051;-68
2022/04/11 06:43:10;;;;;;;19.08;14.43;;;;;;;4.57;100.00;100703.16;5054700;28;20051;-69
2022/04/11 06:45:54;;;;;;;;;;;;;;;4.68;100.00;100708.63;5056224;28;20040;-69
2022/04/11 06:48:38;;;;;;;38.10;27.20;;;;;;;4.83;100.00;100702.34;5054441;28;19939;-69
2022/04/11 06:51:22;;;;;;;33.30;21.88;;;;;;;4.91;100.00;100697.44;5055667;28;20361;-69
2022/04/11 06:54:06;;;;;;;24.48;14.68;;;;;;;4.99;100.00;100694.19;5055738;28;20102;-69
2022/04/11 06:56:50;;;;;;;23.13;17.02;;;;;;;5.06;100.00;100690.22;5054200;28;20051;-69
2022/04/11 06:59:34;;;;;;;16.15;11.32;;;;;;;5.17;100.00;100700.94;5054424;28;20047;-69
2022/04/11 07:02:19;;;;;;;18.50;12.70;;;;;;;5.26;100.00;100695.06;5054830;28;20079;-69
2022/04/11 07:05:04;;;;;;;12.85;9.18;;;;;;;5.37;100.00;100700.47;5054972;28;20048;-69
2022/04/11 07:07:49;;;;;;;17.08;12.45;;;;;;;5.47;100.00;100695.41;5055183;28;20052;-69
2022/04/11 07:10:33;;;;;;;17.15;9.88;;;;;;;5.63;100.00;100702.22;5055642;28;20401;-69
2022/04/11 07:13:17;;;;;;;41.22;25.83;;;;;;;5.77;100.00;100702.13;5054290;28;20056;-69
2022/04/11 07:16:01;;;;;;;16.63;12.65;;;;;;;5.90;100.00;100704.84;5056602;28;20096;-69
2022/04/11 07:18:46;;;;;;;20.23;15.63;;;;;;;6.05;100.00;100694.03;5053920;28;20055;-69
2022/04/11 07:21:30;;;;;;;23.70;17.40;;;;;;;6.24;100.00;100694.47;5055415;28;20124;-69
2022/04/11 07:24:14;;;;;;;15.45;9.43;;;;;;;6.34;100.00;100695.53;5054014;28;20087;-69
2022/04/11 07:26:58;;;;;;;10.55;6.68;;;;;;;6.38;100.00;100701.47;5039623;28;20072;-69
2022/04/11 07:29:42;;;;;;;11.80;7.20;;;;;;;6.50;100.00;100706.75;5053990;28;20515;-69
2022/04/11 07:32:26;;;;;;;9.70;7.32;;;;;;;6.76;100.00;100707.53;5039550;28;20063;-69
2022/04/11 07:35:10;;;;;;;12.48;8.43;;;;;;;6.95;100.00;100714.06;5054951;28;20044;-69
2022/04/11 07:37:57;;;;;;;12.35;7.60;;;;;;;7.05;100.00;100704.47;5053843;28;20503;-69
2022/04/11 07:40:41;;;;;;;10.32;7.03;;;;;;;7.10;100.00;100707.63;5053797;28;20051;-69
2022/04/11 07:43:25;;;;;;;12.38;10.63;;;;;;;7.18;100.00;100705.25;5054523;28;20055;-69
2022/04/11 07:46:12;;;;;;;16.25;10.75;;;;;;;7.36;100.00;100708.38;5054981;28;20440;-69
2022/04/11 07:48:56;;;;;;;16.38;11.15;;;;;;;7.48;100.00;100705.66;5053365;28;20060;-69
2022/04/11 07:51:40;;;;;;;42.90;33.65;;;;;;;7.64;100.00;100708.88;5053781;28;20487;-69
2022/04/11 07:54:24;;;;;;;14.98;10.77;;;;;;;7.83;100.00;100707.34;5054563;28;20043;-69
2022/04/11 07:57:09;;;;;;;9.70;7.07;;;;;;;8.06;100.00;100702.94;5054438;28;20404;-69
2022/04/11 07:59:53;;;;;;;11.10;7.25;;;;;;;8.06;100.00;100702.94;5053419;28;20099;-69
2022/04/11 08:02:37;;;;;;;10.80;8.95;;;;;;;8.37;100.00;100699.63;5053612;28;20129;-69
2022/04/11 08:05:23;;;;;;;7.75;5.13;;;;;;;8.40;100.00;100694.06;5053982;28;20044;-69
2022/04/11 08:08:07;;;;;;;11.60;6.35;;;;;;;8.53;100.00;100694.78;5053901;28;20087;-69
2022/04/11 08:10:51;;;;;;;9.18;5.90;;;;;;;8.70;100.00;100700.50;5038715;28;20063;-69
2022/04/11 08:13:35;;;;;;;10.02;6.25;;;;;;;8.87;100.00;100685.84;5053193;28;20075;-69
2022/04/11 08:16:19;;;;;;;9.60;6.20;;;;;;;8.96;100.00;100693.91;5053091;28;20562;-69
2022/04/11 08:19:03;;;;;;;6.90;5.63;;;;;;;9.03;100.00;100689.78;5054061;28;20519;-69
2022/04/11 08:21:47;;;;;;;11.80;7.97;;;;;;;9.15;100.00;100688.78;5053716;28;20584;-69
2022/04/11 08:24:32;;;;;;;8.98;6.40;;;;;;;9.28;100.00;100678.00;5053619;28;20048;-69
2022/04/11 08:27:16;;;;;;;10.50;6.78;;;;;;;9.39;100.00;100683.28;5052692;28;20120;-69
2022/04/11 08:30:00;;;;;;;21.02;14.63;;;;;;;9.64;100.00;100677.59;5053175;28;20151;-69
2022/04/11 08:32:46;;;;;;;9.02;5.82;;;;;;;9.83;96.45;100675.06;5053139;28;20093;-69
2022/04/11 08:35:30;;;;;;;32.88;17.92;;;;;;;9.99;97.70;100670.16;5052526;28;20043;-69
2022/04/11 08:38:14;;;;;;;54.30;36.03;;;;;;;10.11;94.20;100664.63;5053649;28;20503;-69
2022/04/11 08:41:00;;;;;;;7.80;6.13;;;;;;;10.24;85.34;100666.13;5038326;28;20048;-69
2022/04/11 08:43:44;;;;;;;26.08;14.82;;;;;;;10.41;86.41;100662.84;5052308;28;20055;-69
2022/04/11 08:46:28;;;;;;;15.45;9.15;;;;;;;10.58;81.48;100656.88;5052800;28;20510;-69
2022/04/11 08:49:12;;;;;;;;;;;;;;;10.71;76.36;100660.16;5052940;28;20087;-68
2022/04/11 08:51:56;;;;;;;10.07;7.17;;;;;;;10.83;75.48;100653.72;5052512;28;19920;-68
2022/04/11 08:54:40;;;;;;;10.63;5.22;;;;;;;10.91;72.51;100659.22;5038334;28;20044;-68
2022/04/11 08:57:24;;;;;;;6.93;4.03;;;;;;;11.02;75.76;100658.25;5053391;28;20106;-69
2022/04/11 09:00:10;;;;;;;9.55;5.43;;;;;;;11.14;73.31;100654.47;5052353;28;20490;-69
2022/04/11 09:02:54;;;;;;;10.90;6.85;;;;;;;11.40;72.88;100653.81;5052309;28;20047;-69
2022/04/11 09:05:39;;;;;;;6.05;4.03;;;;;;;11.58;66.40;100646.78;5052342;28;20047;-69
2022/04/11 09:08:38;;;;;;;5.43;3.28;;;;;;;11.71;64.23;100639.34;5038053;28;20047;-68
2022/04/11 09:11:29;;;;;;;13.80;9.15;;;;;;;11.87;65.51;100636.94;5052322;28;20182;-68
2022/04/11 09:14:13;;;;;;;9.50;5.57;;;;;;;12.05;65.15;100629.00;5052784;28;20043;-68
2022/04/11 09:16:57;;;;;;;7.32;4.60;;;;;;;12.30;62.38;100623.03;5053146;28;20526;-69
2022/04/11 09:19:41;;;;;;;5.63;3.70;;;;;;;12.44;60.66;100622.53;5052922;28;20127;-69
2022/04/11 09:22:29;;;;;;;13.45;10.55;;;;;;;12.58;59.67;100620.22;5056160;28;20131;-69
2022/04/11 09:25:19;;;;;;;10.57;7.80;;;;;;;12.70;60.90;100621.69;5042299;28;20044;-69
2022/04/11 09:28:06;;;;;;;5.68;3.80;;;;;;;13.09;58.62;100615.16;5041881;28;20051;-69
2022/04/11 09:30:50;;;;;;;8.05;5.45;;;;;;;13.38;57.11;100623.81;5042284;28;20110;-69
2022/04/11 09:33:40;;;;;;;7.90;5.93;;;;;;;13.47;54.73;100615.69;5056171;28;20056;-69
2022/04/11 09:36:52;;;;;;;10.20;8.63;;;;;;;13.72;55.98;100617.59;5056757;28;20047;-69
2022/04/11 09:39:38;;;;;;;4.93;4.00;;;;;;;13.72;55.98;100617.59;5055984;28;20044;-69
2022/04/11 09:42:32;;;;;;;7.43;4.97;;;;;;;14.06;49.75;100610.44;5057022;28;20047;-68
2022/04/11 09:45:17;;;;;;;13.90;9.05;;;;;;;14.27;51.08;100610.09;5056010;28;20052;-69
2022/04/11 09:48:02;;;;;;;7.88;4.15;;;;;;;14.77;49.00;100603.78;5056940;28;20056;-69
2022/04/11 09:50:47;;;;;;;4.10;2.80;;;;;;;16.02;46.44;100607.78;5056001;28;20087;-69
2022/04/11 09:53:33;;;;;;;7.47;3.90;;;;;;;16.96;44.88;100604.09;5055726;28;20048;-69
2022/04/11 09:56:19;;;;;;;3.20;2.50;;;;;;;17.50;41.28;100597.69;5041787;28;20064;-69
2022/04/11 09:59:03;;;;;;;6.80;5.78;;;;;;;18.84;38.77;100582.97;5055807;28;20094;-69
2022/04/11 10:01:48;;;;;;;16.08;12.68;;;;;;;19.01;38.23;100581.72;5055679;28;20459;-69
2022/04/11 10:04:35;;;;;;;6.25;3.60;;;;;;;-139.48;100.00;61774.03;5055212;28;20044;-69
2022/04/11 10:07:19;;;;;;;8.52;6.13;;;;;;;19.01;38.23;100581.72;5055285;28;20416;-69
2022/04/11 10:10:05;;;;;;;;;;;;;;;21.36;33.61;100569.59;5055840;28;20527;-70
2022/04/11 10:12:52;;;;;;;8.57;7.30;;;;;;;22.27;31.76;100561.47;5041282;28;19920;-69
2022/04/11 10:15:37;;;;;;;21.45;19.08;;;;;;;22.81;30.27;100567.38;5055357;28;20056;-69
2022/04/11 10:18:26;;;;;;;11.88;10.63;;;;;;;22.92;29.60;100563.97;5055226;28;20060;-69
2022/04/11 10:21:13;;;;;;;5.30;4.57;;;;;;;21.42;30.72;100568.78;5055266;28;20044;-70
2022/04/11 10:24:08;;;;;;;8.05;5.22;;;;;;;22.77;28.84;100555.28;5054928;28;20136;-69
2022/04/11 10:26:53;;;;;;;4.40;2.95;;;;;;;23.97;28.83;100556.84;5040983;28;20113;-70
2022/04/11 10:29:38;;;;;;;3.05;2.67;;;;;;;24.85;28.86;100548.09;5041123;28;20067;-67
2022/04/11 10:32:27;;;;;;;10.88;6.60;;;;;;;25.31;28.34;100551.88;5040491;28;20048;-67
2022/04/11 10:35:10;;;;;;;9.93;8.80;;;;;;;26.04;27.97;100549.69;5054906;28;20409;-68
2022/04/11 10:37:57;;;;;;;7.05;5.65;;;;;;;26.04;27.95;100552.41;5040786;28;20040;-68
2022/04/11 10:40:48;;;;;;;5.22;2.88;;;;;;;26.41;25.57;100535.50;5055940;28;20102;-68
2022/04/11 10:43:33;;;;;;;4.10;2.45;;;;;;;26.49;24.12;100537.03;5055125;28;20052;-67
2022/04/11 10:46:16;;;;;;;3.50;2.90;;;;;;;26.35;25.41;100521.97;5055452;28;20036;-68
2022/04/11 10:49:05;;;;;;;3.17;2.67;;;;;;;25.93;25.49;100524.00;5055483;28;20520;-68
2022/04/11 10:52:30;;;;;;;3.35;2.97;;;;;;;26.24;23.36;100520.91;5055789;28;20110;-68
2022/04/11 10:55:18;;;;;;;5.53;2.83;;;;;;;27.22;23.82;100512.31;5054320;28;20550;-68
2022/04/11 10:58:02;;;;;;;4.03;3.00;;;;;;;27.68;22.33;100501.09;5054303;28;20048;-68
2022/04/11 11:00:47;;;;;;;9.57;8.60;;;;;;;27.49;22.38;100507.88;5054566;28;20048;-68
2022/04/11 11:03:30;;;;;;;4.00;2.35;;;;;;;27.33;22.89;100494.19;5054146;28;20076;-69
2022/04/11 11:06:16;;;;;;;5.03;3.97;;;;;;;26.88;25.77;100503.41;5055466;28;20044;-67
2022/04/11 11:09:15;;;;;;;5.50;3.33;;;;;;;27.35;24.19;100495.59;5054307;28;20078;-67
2022/04/11 11:12:18;;;;;;;3.40;2.75;;;;;;;28.78;23.78;100489.00;5040202;28;20455;-68
2022/04/11 11:15:25;;;;;;;3.53;2.67;;;;;;;28.25;23.61;100486.06;5054573;28;20047;-68
2022/04/11 11:18:09;;;;;;;5.22;2.70;;;;;;;28.09;23.64;100481.47;5040141;28;20051;-68
2022/04/11 11:20:57;;;;;;;4.30;2.50;;;;;;;29.16;23.50;100460.59;5039929;28;20194;-68
2022/04/11 11:23:42;;;;;;;3.58;2.63;;;;;;;29.06;22.88;100472.28;5039773;28;20052;-68
2022/04/11 11:26:29;;;;;;;4.70;2.95;;;;;;;28.69;22.70;100468.56;5053698;28;20039;-68
2022/04/11 11:29:28;;;;;;;8.93;6.68;;;;;;;28.30;23.05;100461.47;5026135;28;20092;-68
2022/04/11 11:32:12;;;;;;;4.95;3.05;;;;;;;27.42;24.28;100451.63;5053960;28;20090;-68
2022/04/11 11:34:56;;;;;;;5.60;2.75;;;;;;;28.93;23.73;100450.75;5054917;28;20488;-68
2022/04/11 11:37:40;;;;;;;3.67;3.10;;;;;;;30.08;21.63;100453.66;5053508;28;20105;-68
2022/04/11 11:40:24;;;;;;;5.28;3.15;;;;;;;30.05;21.13;100449.53;5054709;28;20044;-68
2022/04/11 11:43:12;;;;;;;3.55;2.80;;;;;;;29.02;22.29;100448.34;5054220;28;20094;-68
2022/04/11 11:45:58;;;;;;;5.85;2.67;;;;;;;29.12;23.66;100443.81;5053122;28;20048;-68
2022/04/11 11:48:42;;;;;;;3.67;2.70;;;;;;;29.97;21.80;100441.75;5054342;28;20507;-68
2022/04/11 11:51:27;;;;;;;4.25;2.90;;;;;;;29.73;21.64;100439.66;5054568;28;20420;-68
2022/04/11 11:54:10;;;;;;;5.85;3.50;;;;;;;29.01;22.96;100436.56;5053274;28;20055;-69
2022/04/11 11:56:54;;;;;;;4.65;2.60;;;;;;;30.19;20.88;100426.78;5053108;28;20068;-68
2022/04/11 11:59:56;;;;;;;3.60;2.95;;;;;;;30.74;20.67;100420.69;5053169;28;20059;-68
2022/04/11 12:05:42;;;;;;;5.13;3.38;;;;;;;30.08;20.77;100405.81;5053216;28;20456;-68
2022/04/11 12:08:30;;;;;;;3.88;3.00;;;;;;;30.12;21.09;100401.44;5038796;28;20473;-68
2022/04/11 12:11:14;;;;;;;3.42;2.60;;;;;;;31.10;21.16;100403.09;5053209;28;20051;-69
2022/04/11 12:14:08;;;;;;;4.50;2.85;;;;;;;30.24;20.27;100403.97;5052679;28;20128;-68
2022/04/11 12:16:58;;;;;;;3.70;2.50;;;;;;;29.81;19.98;100406.19;5053915;28;20538;-68
2022/04/11 12:19:41;;;;;;;3.45;2.67;;;;;;;30.27;20.32;100389.66;5052844;28;20141;-68
2022/04/11 12:22:25;;;;;;;4.13;2.67;;;;;;;30.19;21.16;100380.03;5052753;28;20052;-68
2022/04/11 12:25:24;;;;;;;2.63;2.22;;;;;;;30.56;20.91;100385.38;5053658;28;20091;-68
2022/04/11 12:28:19;;;;;;;4.20;2.40;;;;;;;29.29;22.13;100384.09;5052586;28;20151;-68
2022/04/11 12:31:03;;;;;;;6.40;2.95;;;;;;;29.85;21.69;100377.91;5052856;28;20396;-67
2022/04/11 12:33:49;;;;;;;3.05;2.50;;;;;;;29.59;20.78;100378.03;5053599;28;20052;-68
2022/04/11 12:36:33;;;;;;;3.42;2.33;;;;;;;29.09;22.11;100375.69;5052739;28;20036;-69
2022/04/11 12:39:17;;;;;;;5.68;2.30;;;;;;;28.32;23.00;100366.06;5053543;28;20570;-68
2022/04/11 12:42:02;;;;;;;3.45;2.78;;;;;;;28.15;21.76;100359.81;5052433;28;20055;-69
2022/04/11 12:44:49;;;;;;;5.93;2.08;;;;;;;27.46;22.46;100348.72;5052675;28;20455;-68
2022/04/11 12:47:33;;;;;;;2.53;2.30;;;;;;;27.46;22.46;100348.72;5052434;28;20055;-68